createdAt,value
2019-03-28T00:01:35.955Z,9.34
2019-03-28T00:04:08.031Z,9.31
2019-03-28T00:06:39.328Z,9.32
2019-03-28T00:09:11.371Z,9.32
2019-03-28T00:11:42.950Z,9.32
2019-03-28T00:14:14.456Z,9.31
2019-03-28T00:16:45.751Z,9.32
2019-03-28T00:19:18.353Z,9.31
2019-03-28T00:21:50.660Z,9.31
2019-03-28T00:24:49.901Z,9.31
2019-03-28T00:27:21.285Z,9.31
2019-03-28T00:29:52.982Z,9.28
2019-03-28T00:32:24.799Z,9.28
2019-03-28T00:34:56.053Z,9.29
2019-03-28T00:37:27.264Z,9.29
2019-03-28T00:39:58.502Z,9.27
2019-03-28T00:42:30.478Z,9.27
2019-03-28T00:45:01.921Z,9.27
2019-03-28T00:47:33.921Z,9.28
2019-03-28T00:50:15.716Z,9.30
2019-03-28T00:52:46.992Z,9.31
2019-03-28T00:55:18.546Z,9.30
2019-03-28T00:57:50.146Z,9.31
2019-03-28T01:00:22.272Z,9.31
2019-03-28T01:02:53.549Z,9.31
2019-03-28T01:05:25.047Z,9.31
2019-03-28T01:07:57.754Z,9.30
2019-03-28T01:10:29.704Z,9.28
2019-03-28T01:13:01.500Z,9.29
2019-03-28T01:15:32.700Z,9.29
2019-03-28T01:18:04.403Z,9.30
2019-03-28T01:20:36.122Z,9.31
2019-03-28T01:23:08.313Z,9.30
2019-03-28T01:25:39.713Z,9.30
2019-03-28T01:28:11.114Z,9.30
2019-03-28T01:30:42.815Z,9.29
2019-03-28T01:33:14.167Z,9.28
2019-03-28T01:35:45.858Z,9.29
2019-03-28T01:38:17.204Z,9.28
2019-03-28T01:40:50.005Z,9.30
2019-03-28T01:43:23.586Z,9.28
2019-03-28T01:45:57.035Z,9.28
2019-03-28T01:48:28.645Z,9.26
2019-03-28T01:51:00.440Z,9.25
2019-03-28T01:53:31.879Z,9.26
2019-03-28T01:56:03.269Z,9.26
2019-03-28T01:58:34.762Z,9.26
2019-03-28T02:01:06.594Z,9.26
2019-03-28T02:03:38.284Z,9.25
2019-03-28T02:06:09.880Z,9.26
2019-03-28T02:08:42.361Z,9.25
2019-03-28T02:11:13.741Z,9.25
2019-03-28T02:13:46.094Z,9.23
2019-03-28T02:16:17.871Z,9.13
2019-03-28T02:18:49.969Z,9.22
2019-03-28T02:21:21.454Z,9.22
2019-03-28T02:23:53.329Z,9.21
2019-03-28T02:26:26.958Z,9.21
2019-03-28T02:28:58.506Z,9.21
2019-03-28T02:31:30.279Z,9.19
2019-03-28T02:34:01.560Z,9.18
2019-03-28T02:36:33.237Z,9.15
2019-03-28T02:39:05.621Z,9.15
2019-03-28T02:41:37.041Z,9.15
2019-03-28T02:44:09.792Z,9.13
2019-03-28T02:46:41.123Z,9.14
2019-03-28T02:49:13.254Z,9.14
2019-03-28T02:51:44.621Z,9.14
2019-03-28T02:54:16.084Z,9.13
2019-03-28T02:56:47.336Z,9.13
2019-03-28T02:59:20.903Z,9.12
2019-03-28T03:01:53.185Z,9.12
2019-03-28T03:04:24.408Z,9.11
2019-03-28T03:06:55.592Z,9.11
2019-03-28T03:09:30.073Z,9.10
2019-03-28T03:12:01.552Z,9.10
2019-03-28T03:14:32.906Z,9.09
2019-03-28T03:17:04.233Z,9.07
2019-03-28T03:19:35.539Z,9.05
2019-03-28T03:22:08.169Z,9.04
2019-03-28T03:24:39.514Z,9.04
2019-03-28T03:27:10.979Z,9.05
2019-03-28T03:29:42.395Z,9.05
2019-03-28T03:32:13.754Z,9.07
2019-03-28T03:34:47.238Z,9.09
2019-03-28T03:37:18.663Z,9.09
2019-03-28T03:39:52.209Z,9.10
2019-03-28T03:42:24.048Z,9.11
2019-03-28T03:44:55.239Z,9.12
2019-03-28T03:47:27.655Z,9.11
2019-03-28T03:49:59.295Z,9.11
2019-03-28T03:52:30.725Z,9.10
2019-03-28T03:55:02.289Z,9.11
2019-03-28T03:57:33.712Z,9.12
2019-03-28T04:00:05.832Z,9.11
2019-03-28T04:02:37.279Z,9.11
2019-03-28T04:05:12.965Z,9.10
2019-03-28T04:07:44.470Z,9.10
2019-03-28T04:10:16.099Z,9.11
2019-03-28T04:12:47.730Z,9.12
2019-03-28T04:15:19.157Z,9.13
2019-03-28T04:17:50.727Z,9.13
2019-03-28T04:20:23.206Z,9.14
2019-03-28T04:22:54.916Z,9.14
2019-03-28T04:25:26.154Z,9.17
2019-03-28T04:27:59.607Z,9.08
2019-03-28T04:30:31.383Z,9.17
2019-03-28T04:33:02.660Z,9.19
2019-03-28T04:35:35.115Z,9.20
2019-03-28T13:27:34.859Z,16.51
2019-03-28T13:30:10.202Z,16.38
2019-03-28T13:32:42.454Z,16.26
2019-03-28T13:35:14.123Z,16.17
2019-03-28T13:37:45.091Z,16.07
2019-03-28T13:40:16.305Z,16.07
2019-03-28T13:42:48.744Z,16.05
2019-03-28T13:45:20.276Z,16.02
2019-03-28T13:47:54.178Z,15.97
2019-03-28T13:50:24.376Z,15.89
2019-03-28T13:52:55.321Z,15.88
2019-03-28T13:55:26.354Z,15.88
2019-03-28T13:57:57.757Z,15.92
2019-03-28T14:00:36.337Z,15.92
2019-03-28T14:03:07.541Z,15.88
2019-03-28T14:05:38.488Z,15.90
2019-03-28T14:08:09.463Z,15.90
2019-03-28T14:10:43.165Z,15.90
2019-03-28T14:13:14.226Z,15.87
2019-03-28T14:15:45.214Z,15.86
2019-03-28T14:18:17.412Z,15.86
2019-03-28T14:20:48.519Z,15.86
2019-03-28T14:23:19.402Z,15.84
2019-03-28T14:25:50.286Z,15.84
2019-03-28T14:28:21.367Z,15.85
2019-03-28T14:30:55.562Z,15.85
2019-03-28T14:33:28.128Z,15.88
2019-03-28T14:35:59.163Z,15.87
2019-03-28T14:38:30.116Z,15.81
2019-03-28T14:41:01.161Z,15.82
2019-03-28T14:43:32.044Z,15.83
2019-03-28T14:46:02.970Z,15.83
2019-03-28T14:48:33.892Z,15.79
2019-03-28T14:51:04.947Z,15.75
2019-03-28T14:53:36.099Z,15.76
2019-03-28T14:56:07.705Z,15.89
2019-03-28T14:58:39.207Z,16.06
2019-03-28T15:01:10.317Z,16.23
2019-03-28T15:03:41.362Z,16.42
2019-03-28T15:06:13.492Z,16.56
2019-03-28T15:08:44.456Z,16.65
2019-03-28T15:11:15.429Z,16.74
2019-03-28T15:13:46.469Z,16.82
2019-03-28T15:16:17.895Z,16.88
2019-03-28T15:18:51.685Z,16.84
2019-03-28T15:21:22.726Z,16.76
2019-03-28T15:23:53.656Z,16.76
2019-03-28T15:26:24.817Z,16.84
2019-03-28T15:28:55.823Z,16.89
2019-03-28T15:31:26.744Z,16.94
2019-03-28T15:33:57.716Z,16.98
2019-03-28T15:36:28.820Z,17.05
2019-03-28T15:38:59.799Z,17.06
2019-03-28T15:41:30.819Z,17.08
2019-03-28T15:44:01.773Z,17.16
2019-03-28T15:46:32.719Z,17.23
2019-03-28T15:49:03.794Z,17.28
2019-03-28T15:51:34.845Z,17.23
2019-03-28T15:54:05.939Z,17.16
2019-03-28T15:56:36.926Z,17.06
2019-03-28T15:59:08.028Z,16.97
2019-03-28T16:01:38.915Z,16.85
2019-03-28T16:04:09.816Z,16.73
2019-03-28T16:06:40.936Z,16.60
2019-03-28T16:09:12.509Z,16.49
2019-03-28T16:11:43.556Z,16.38
2019-03-28T16:14:14.456Z,16.32
2019-03-28T16:16:45.488Z,16.30
2019-03-28T16:19:16.457Z,16.33
2019-03-28T16:21:50.457Z,16.33
2019-03-28T16:24:21.427Z,16.30
2019-03-28T16:26:52.524Z,16.29
2019-03-28T16:29:23.582Z,16.23
2019-03-28T16:31:55.911Z,16.14
2019-03-28T16:34:26.909Z,16.08
2019-03-28T16:36:58.055Z,16.02
2019-03-28T16:39:29.191Z,15.96
2019-03-28T16:42:00.414Z,15.92
2019-03-28T16:44:31.384Z,15.83
2019-03-28T16:47:02.521Z,15.76
2019-03-28T16:49:33.595Z,15.71
2019-03-28T16:52:04.637Z,15.66
2019-03-28T16:54:38.841Z,15.63
2019-03-28T16:57:09.922Z,15.58
2019-03-28T16:59:40.954Z,15.53
2019-03-28T17:02:12.063Z,15.49
2019-03-28T17:04:43.184Z,15.62
2019-03-28T17:07:15.989Z,15.50
2019-03-28T17:09:47.520Z,15.40
2019-03-28T17:12:18.631Z,15.31
2019-03-28T17:14:49.595Z,15.22
2019-03-28T17:17:20.686Z,15.17
2019-03-28T17:19:51.749Z,15.10
2019-03-28T17:22:22.795Z,15.05
2019-03-28T17:24:53.920Z,14.98
2019-03-28T17:28:08.079Z,14.92
2019-03-28T17:30:43.922Z,14.93
2019-03-28T17:33:23.077Z,14.77
2019-03-28T17:35:55.001Z,14.73
2019-03-28T17:38:27.554Z,14.69
2019-03-28T17:40:59.103Z,14.67
2019-03-28T17:43:30.359Z,14.65
2019-03-28T17:46:01.672Z,14.63
2019-03-28T17:48:33.030Z,14.59
2019-03-28T17:51:04.095Z,14.52
2019-03-28T17:53:35.133Z,14.47
2019-03-28T17:56:06.343Z,14.39
2019-03-28T17:58:37.345Z,14.33
2019-03-28T18:01:08.705Z,14.29
2019-03-28T18:03:42.925Z,14.25
2019-03-28T18:06:14.642Z,14.22
2019-03-28T18:08:46.170Z,14.18
2019-03-28T18:11:17.535Z,14.16
2019-03-28T18:13:48.890Z,14.14
2019-03-28T18:16:20.325Z,14.12
2019-03-28T18:18:51.601Z,14.10
2019-03-28T18:21:23.046Z,14.06
2019-03-28T18:23:54.487Z,14.03
2019-03-28T18:26:25.930Z,14.01
2019-03-28T18:28:57.264Z,13.98
2019-03-28T18:31:28.593Z,13.96
2019-03-28T18:33:59.993Z,13.93
2019-03-28T18:39:14.935Z,13.95
2019-03-28T18:41:46.275Z,13.87
2019-03-28T18:44:17.564Z,13.84
2019-03-28T18:46:49.060Z,13.82
2019-03-28T18:49:23.813Z,13.80
2019-03-28T18:51:55.110Z,13.78
2019-03-28T18:54:26.463Z,13.77
2019-03-28T18:56:58.210Z,13.75
2019-03-28T18:59:29.447Z,13.74
2019-03-28T19:02:00.708Z,13.73
2019-03-28T19:04:32.061Z,13.70
2019-03-28T19:07:03.460Z,13.69
2019-03-28T19:09:34.796Z,13.67
2019-03-28T19:12:06.204Z,13.65
2019-03-28T19:14:37.474Z,13.63
2019-03-28T19:17:08.775Z,13.62
2019-03-28T19:19:40.093Z,13.59
2019-03-28T19:22:11.375Z,13.54
2019-03-28T19:24:42.780Z,13.49
2019-03-28T19:27:14.514Z,13.46
2019-03-28T19:29:45.621Z,13.42
2019-03-28T19:32:16.968Z,13.42
2019-03-28T19:34:48.302Z,13.41
2019-03-28T19:37:22.685Z,13.38
2019-03-28T19:39:53.027Z,13.38
2019-03-28T19:42:24.491Z,13.37
2019-03-28T19:44:56.066Z,13.34
2019-03-28T19:47:28.739Z,13.34
2019-03-28T19:50:00.282Z,13.32
2019-03-28T19:52:31.697Z,13.28
2019-03-28T19:55:03.105Z,13.28
2019-03-28T19:57:34.476Z,13.27
2019-03-28T20:00:06.465Z,13.24
2019-03-28T20:02:38.528Z,13.24
2019-03-28T20:05:11.295Z,13.24
2019-03-28T20:07:45.705Z,13.22
2019-03-28T20:10:16.980Z,13.21
2019-03-28T20:12:48.885Z,13.20
2019-03-28T20:15:20.198Z,13.19
2019-03-28T20:17:51.543Z,13.18
2019-03-28T20:20:25.019Z,13.18
2019-03-28T20:22:56.787Z,13.15
2019-03-28T20:25:28.244Z,13.14
2019-03-28T20:27:59.673Z,13.10
2019-03-28T20:30:30.980Z,13.10
2019-03-28T20:33:02.324Z,13.09
2019-03-28T20:35:33.563Z,13.08
2019-03-28T20:38:04.830Z,13.09
2019-03-28T20:40:36.370Z,13.07
2019-03-28T20:43:08.252Z,13.07
2019-03-28T20:45:39.568Z,13.31
2019-03-28T20:48:11.039Z,13.22
2019-03-28T20:50:42.421Z,13.17
2019-03-28T20:53:13.707Z,13.12
2019-03-28T20:55:45.264Z,13.11
2019-03-28T20:58:16.698Z,13.04
2019-03-28T21:00:49.287Z,13.05
2019-03-28T21:03:20.726Z,12.98
2019-03-28T21:05:52.028Z,12.99
2019-03-28T21:08:23.447Z,12.96
2019-03-28T21:10:54.743Z,12.93
2019-03-28T21:13:29.880Z,12.91
2019-03-28T21:16:00.575Z,12.89
2019-03-28T21:18:31.923Z,12.86
2019-03-28T21:21:03.339Z,12.83
2019-03-28T21:23:34.705Z,12.84
2019-03-28T21:26:06.021Z,12.83
2019-03-28T21:28:47.235Z,12.80
2019-03-28T21:31:10.580Z,12.79
2019-03-28T21:33:43.412Z,12.77
2019-03-28T21:36:28.648Z,12.75
2019-03-28T21:38:47.795Z,12.78
2019-03-28T21:41:20.344Z,12.76
2019-03-28T21:43:52.111Z,12.77
2019-03-28T21:46:25.951Z,12.72
2019-03-28T21:48:59.609Z,12.69
2019-03-28T21:51:30.987Z,12.69
2019-03-28T21:54:04.883Z,12.72
2019-03-28T21:56:35.563Z,12.71
2019-03-28T21:59:10.859Z,12.69
2019-03-28T22:01:42.314Z,12.66
2019-03-28T22:04:13.765Z,12.67
2019-03-28T22:06:45.115Z,12.63
2019-03-28T22:09:16.455Z,12.64
2019-03-28T22:11:47.847Z,12.62
2019-03-28T22:14:19.812Z,12.61
2019-03-28T22:16:51.135Z,12.56
2019-03-28T22:19:22.138Z,12.59
2019-03-28T22:21:53.190Z,12.57
2019-03-28T22:24:24.171Z,12.55
2019-03-28T22:26:55.215Z,12.52
2019-03-28T22:29:26.245Z,12.50
2019-03-28T22:31:57.224Z,12.50
2019-03-28T22:34:28.146Z,12.49
2019-03-28T22:37:00.893Z,12.47
2019-03-28T22:39:31.869Z,12.46
2019-03-28T22:42:02.831Z,12.44
2019-03-28T22:44:34.133Z,12.43
2019-03-28T22:47:05.945Z,12.40
2019-03-28T22:49:39.149Z,12.38
2019-03-28T22:52:10.196Z,12.37
2019-03-28T22:54:41.185Z,12.36
2019-03-28T22:57:12.357Z,12.34
2019-03-28T22:59:43.301Z,12.31
2019-03-28T23:02:14.362Z,12.30
2019-03-28T23:04:45.398Z,12.28
2019-03-28T23:07:16.438Z,12.27
2019-03-28T23:09:47.316Z,12.23
2019-03-28T23:12:18.346Z,12.24
2019-03-28T23:14:49.415Z,12.22
2019-03-28T23:17:28.189Z,12.21
2019-03-28T23:20:06.406Z,12.19
2019-03-28T23:22:37.537Z,12.18
2019-03-28T23:25:09.298Z,12.18
2019-03-28T23:27:40.364Z,12.16
2019-03-28T23:30:11.842Z,12.15
2019-03-28T23:32:43.015Z,12.15
2019-03-28T23:35:14.749Z,12.15
2019-03-28T23:37:45.758Z,12.14
2019-03-28T23:40:16.960Z,12.14
2019-03-28T23:42:48.149Z,12.12
2019-03-28T23:45:19.813Z,12.10
2019-03-28T23:47:50.999Z,12.07
2019-03-28T23:50:22.092Z,12.08
2019-03-28T23:52:53.208Z,12.08
2019-03-28T23:55:24.277Z,12.07
2019-03-28T23:57:55.247Z,12.08
